If you wish to contribute or participate in the discussions about articles you are invited to join SKYbrary as a registered user

 Actions

Scatsta

From SKYbrary Wiki

EGPM
Airport
ICAO: EGPM
Summary
Name Scatsta
Region Europe
Territory United Kingdom GB.gif
Location Shetland, Scotland
Serving
Coordinates 60° 26' 1.19" N, 1° 18' 5.33" W
Runways
Designator Length Width Surface ROPS
6/24 1360 m4,461.942 ft
31 m101.706 ft
ASP no/no


METAR
Observation EGPM 252150Z AUTO 36008KT 9999 OVC016/// 10/07 Q1028
Station Scatsa / Shetland Island
Date/Time 25 June 2019 21:50:00
Wind direction 360°
Wind speed 08 kts
Lowest cloud amount overcast
Temperature 10°C
Dew point 7°C
Humidity 81%
QNH 1028 hPa
Weather condition n/a


Scatsta

ICAO: EGPM IATA: SCS

Description

Scatsta Airport is a privately operated facility on the Island of Unst in the Shetland Isles which serves the offshore oil and gas industry. It is 8.0 km4.32 nm
8,000 m
26,246.719 ft
southwest of Sullom Voe Oil Terminal and 39 km21.058 nm
39,000 m
127,952.756 ft
north-northwest of Lerwick. It is used by both fixed wing and rotary wing aircraft.


Climatology

Temperate Marine climate/Oceanic climate (Köppen climate classification Cfb) - Moderately cool summer and comparatively warm winter.

Maps

Terrain

Loading map...

Airport Layout

Loading map...


Accidents & Serious Incidents at or in vicinity of EGPM

None on SKYbrary